Corte Madera (442) Station Data

Red Flag Warning: No
Fire Weather Zone: 258
SDGE Region: Mountain Empire
Lat/Lon: 32.783/-116.55

Observations

Time Wind Speed/Gust Temp(F) RH Fuel Moist Fuel Temp(F) Dewpt(F) Tmax(F) Tmin(F) Accum Precip 10-min Precip SL Press(mb)
4/26 2:40am 344 3 G 4 46° 70% - - 37° 51.9° 44.9° - - -
4/26 2:30am 339 2 G 4 47° 68% - - 37° 51.9° 44.9° - - -
4/26 2:20am 318 0 G 1 47° 71% - - 38° 51.9° 44.9° - - -
4/26 2:10am 252 1 G 2 46° 73% - - 38° 51.9° 44.9° - - -
4/26 2:00am 268 2 G 3 45° 77% - - 38° 51.9° 44.9° - - -
4/26 1:50am 331 3 G 4 46° 76% - - 39° 51.9° 45.2° - - -
4/26 1:40am 346 4 G 5 47° 72% - - 39° 51.9° 46.3° - - -
4/26 1:30am 320 3 G 4 49° 67% - - 39° 51.9° 47.7° - - -
4/26 1:20am 1 2 G 4 51° 62% - - 38° 51.9° 47.7° - - -
4/26 1:10am 36 2 G 4 48° 72% - - 40° 51.9° 47.7° - - -
4/26 1:00am 332 3 G 4 48° 70% - - 39° 51.9° 47.7° - - -
4/26 12:50am 328 5 G 6 50° 65% - - 39° 51.9° 49° - - -
4/26 12:40am 319 4 G 5 51° 64% - - 39° 51.9° 49.1° - - -
4/26 12:30am 333 4 G 4 51° 62% - - 39° 51.9° 49.1° - - -
4/26 12:20am 353 3 G 4 51° 62% - - 39° 51.8° 49.1° - - -
4/26 12:10am 333 2 G 3 50° 68% - - 40° 51° 49.1° - - -
4/26 12:00am 338 1 G 2 48° 76% - - 41° 56.4° 44.3° - - -
4/25 11:50pm 294 1 G 3 48° 77% - - 41° 56.4° 44.3° - - -
4/25 11:40pm 324 2 G 4 48° 76% - - 41° 56.4° 44.3° - - -
4/25 11:30pm 343 2 G 3 48° 76% - - 41° 56.4° 44.3° - - -
4/25 11:20pm 1 2 G 5 48° 76% - - 41° 56.4° 44.3° - - -
4/25 11:10pm 279 1 G 3 48° 78% - - 41° 56.4° 44.3° - - -
4/25 11:00pm 336 4 G 6 49° 78% - - 42° 56.4° 44.3° - - -
4/25 10:50pm 291 1 G 4 47° 86% - - 43° 56.4° 44.3° - - -
4/25 10:40pm 306 2 G 4 47° 86% - - 43° 56.4° 44.3° - - -
4/25 10:30pm 358 4 G 7 47° 86% - - 43° 56.4° 44.3° - - -
4/25 10:20pm 350 7 G 9 47° 86% - - 43° 56.4° 44.3° - - -
4/25 10:10pm 340 6 G 9 47° 89% - - 44° 56.4° 44.3° - - -
4/25 10:00pm 337 4 G 8 47° 90% - - 44° 56.4° 44.3° - - -
4/25 9:50pm 328 6 G 12 48° 88% - - 44° 56.4° 44.3° - - -
4/25 9:40pm 344 10 G 15 47° 90% - - 45° 56.4° 44.3° - - -
4/25 9:30pm 336 9 G 13 46° 93% - - 45° 56.4° 44.3° - - -
4/25 9:20pm 327 9 G 12 46° 93% - - 44° 56.4° 44.3° - - -
4/25 9:10pm 336 10 G 13 46° 93% - - 44° 56.4° 44.3° - - -
4/25 9:00pm 336 9 G 14 46° 93% - - 44° 56.4° 44.3° - - -
4/25 8:50pm 330 8 G 12 46° 92% - - 44° 56.4° 44.3° - - -
4/25 8:40pm 322 8 G 12 47° 92% - - 45° 56.4° 44.3° - - -
4/25 8:30pm 326 9 G 14 47° 91% - - 45° 56.4° 44.3° - - -
4/25 8:20pm 314 8 G 13 47° 91% - - 45° 56.4° 44.3° - - -
4/25 8:10pm 310 8 G 12 48° 90% - - 45° 56.4° 44.3° - - -
4/25 8:00pm 314 7 G 12 48° 90% - - 45° 56.4° 44.3° - - -
4/25 7:50pm 311 7 G 13 48° 91% - - 45° 56.4° 44.3° - - -
4/25 7:40pm 308 8 G 14 48° 91% - - 46° 56.4° 44.3° - - -
4/25 7:30pm 305 9 G 15 48° 92% - - 46° 56.4° 44.3° - - -
4/25 7:20pm 303 9 G 14 48° 93% - - 46° 56.4° 44.3° - - -
4/25 7:10pm 294 10 G 14 48° 93% - - 46° 56.4° 44.3° - - -
4/25 7:00pm 303 10 G 15 49° 93% - - 47° 56.4° 44.3° - - -
4/25 6:50pm 301 10 G 15 49° 92% - - 47° 56.4° 44.3° - - -
4/25 6:40pm 297 9 G 15 49° 91% - - 47° 56.4° 44.3° - - -
4/25 6:30pm 299 9 G 13 50° 91% - - 47° 56.4° 44.3° - - -
4/25 6:20pm 297 10 G 15 50° 90% - - 47° 56.4° 44.3° - - -
4/25 6:10pm 292 10 G 16 50° 89% - - 47° 56.4° 44.3° - - -
4/25 6:00pm 291 11 G 16 50° 88% - - 47° 56.4° 44.3° - - -
4/25 5:50pm 293 11 G 18 50° 86% - - 47° 56.4° 44.3° - - -
4/25 5:40pm 294 11 G 16 51° 84% - - 46° 56.4° 44.3° - - -
4/25 5:30pm 292 10 G 19 51° 82% - - 46° 56.4° 44.3° - - -
4/25 5:20pm 293 10 G 17 51° 83% - - 46° 56.4° 44.3° - - -
4/25 5:10pm 288 11 G 18 51° 83% - - 46° 56.4° 44.3° - - -
4/25 5:00pm 284 12 G 17 51° 82% - - 46° 56.4° 44.3° - - -
4/25 4:50pm 292 10 G 16 52° 81% - - 46° 56.4° 44.3° - - -
4/25 4:40pm 291 10 G 15 52° 79% - - 46° 56.4° 44.3° - - -
4/25 4:30pm 297 11 G 18 52° 78% - - 46° 56.4° 44.3° - - -
4/25 4:20pm 289 11 G 18 53° 77% - - 46° 56.4° 44.3° - - -
4/25 4:10pm 288 11 G 18 52° 78% - - 46° 56.4° 44.3° - - -
4/25 4:00pm 295 12 G 16 52° 78% - - 45° 56.4° 44.3° - - -
4/25 3:50pm 296 11 G 18 52° 76% - - 45° 56.4° 44.3° - - -
4/25 3:40pm 296 11 G 16 53° 73% - - 45° 56.4° 44.3° - - -
4/25 3:30pm 303 9 G 14 53° 75% - - 45° 56.4° 44.3° - - -
4/25 3:20pm 287 10 G 17 53° 75% - - 45° 56.4° 44.3° - - -
4/25 3:10pm 285 10 G 16 53° 73% - - 45° 56.4° 44.3° - - -
4/25 3:00pm 276 10 G 17 53° 72% - - 45° 56.4° 44.3° - - -
4/25 2:50pm 289 10 G 15 54° 70% - - 45° 56.4° 44.3° - - -
4/25 2:40pm 281 11 G 19 54° 67% - - 44° 56.4° 44.3° - - -
4/25 2:30pm 295 11 G 17 54° 67% - - 44° 56.4° 44.3° - - -
4/25 2:20pm 292 11 G 18 55° 67% - - 44° 56.4° 44.3° - - -
4/25 2:10pm 282 11 G 19 55° 68% - - 44° 56.4° 44.3° - - -
4/25 2:00pm 293 14 G 21 55° 65% - - 43° 56.4° 44.3° - - -
4/25 1:50pm 288 13 G 21 55° 63% - - 43° 56.4° 44.3° - - -
4/25 1:40pm 309 11 G 19 54° 65% - - 43° 56.3° 44.3° - - -
4/25 1:30pm 309 11 G 20 55° 62% - - 43° 56.3° 44.3° - - -
4/25 1:20pm 302 11 G 17 54° 65% - - 43° 56° 44.3° - - -
4/25 1:10pm 295 12 G 20 54° 66% - - 43° 55.3° 44.3° - - -
4/25 1:00pm 303 11 G 17 54° 64% - - 43° 55.3° 44.3° - - -
4/25 12:50pm 303 12 G 19 54° 65% - - 42° 55.1° 44.3° - - -
4/25 12:40pm 305 11 G 17 53° 65% - - 42° 54.7° 44.3° - - -
4/25 12:30pm 289 10 G 19 54° 66% - - 43° 54.7° 44.3° - - -
4/25 12:20pm 306 10 G 16 53° 66% - - 42° 54.5° 44.3° - - -
4/25 12:10pm 300 10 G 19 54° 65% - - 42° 54.5° 44.3° - - -
4/25 12:00pm 304 10 G 18 53° 65% - - 42° 54.3° 44.3° - - -
4/25 11:50am 289 13 G 19 52° 67% - - 41° 53.9° 44.3° - - -
4/25 11:40am 306 11 G 19 53° 64% - - 41° 53.9° 44.3° - - -
4/25 11:30am 314 12 G 23 52° 66% - - 41° 52.5° 44.3° - - -
4/25 11:20am 311 10 G 18 51° 70% - - 42° 52.5° 44.3° - - -
4/25 11:10am 315 10 G 17 52° 69% - - 42° 52.5° 44.3° - - -
4/25 11:00am 299 11 G 20 51° 69% - - 41° 52.5° 44.3° - - -
4/25 10:50am 303 13 G 23 51° 68% - - 41° 52.5° 44.3° - - -
4/25 10:40am 288 13 G 20 51° 71% - - 42° 51.5° 44.3° - - -
4/25 10:30am 289 12 G 20 51° 73% - - 42° 51.5° 44.3° - - -
4/25 10:20am 293 12 G 22 51° 71% - - 42° 51.5° 44.3° - - -
4/25 10:10am 300 16 G 24 50° 72% - - 42° 51° 44.3° - - -
4/25 10:00am 296 17 G 28 50° 72% - - 42° 50.7° 44.3° - - -
4/25 9:50am 293 16 G 24 50° 75% - - 42° 50.7° 44.3° - - -
4/25 9:40am 293 16 G 26 49° 77% - - 42° 49.8° 44.3° - - -
4/25 9:30am 299 15 G 26 49° 77% - - 42° 49.7° 44.3° - - -
4/25 9:20am 289 16 G 24 49° 78% - - 42° 49.5° 44.3° - - -
4/25 9:10am 293 15 G 23 48° 82% - - 43° 49.2° 44.3° - - -
4/25 9:00am 311 11 G 19 49° 81% - - 43° 49.2° 44.3° - - -
4/25 8:50am 310 9 G 15 48° 82% - - 43° 48.7° 44.3° - - -
4/25 8:40am 296 11 G 18 48° 84% - - 43° 48.2° 44.3° - - -
4/25 8:30am 284 11 G 16 48° 87% - - 44° 48° 44.3° - - -
4/25 8:20am 290 10 G 14 47° 89% - - 44° 47.4° 44.3° - - -
4/25 8:10am 304 9 G 14 47° 90% - - 44° 47.2° 44.3° - - -
4/25 8:00am 315 8 G 12 46° 93% - - 44° 46.7° 44.3° - - -
4/25 7:50am 303 7 G 11 46° 95% - - 44° 46.1° 44.3° - - -
4/25 7:40am 310 5 G 8 46° 95% - - 44° 45.9° 44.3° - - -
4/25 7:30am 306 6 G 10 46° 95% - - 44° 45.8° 44.3° - - -
4/25 7:20am 306 7 G 10 45° 96% - - 44° 45.6° 44.3° - - -
4/25 7:10am 309 5 G 10 45° 96% - - 44° 45.4° 44.3° - - -
4/25 7:00am 313 4 G 6 45° 97% - - 44° 45.4° 44.3° - - -
4/25 6:50am 311 3 G 6 45° 97% - - 44° 45.4° 44.3° - - -
4/25 6:40am 323 2 G 3 45° 97% - - 44° 45.4° 44.3° - - -
4/25 6:30am 321 3 G 4 45° 97% - - 44° 45.4° 44.3° - - -
4/25 6:20am 305 3 G 6 45° 97% - - 44° 45.4° 44.3° - - -
4/25 6:10am 297 3 G 5 45° 97% - - 44° 45.4° 44.3° - - -
4/25 6:00am 315 3 G 7 45° 97% - - 44° 45.4° 44.3° - - -
4/25 5:50am 272 6 G 10 45° 97% - - 44° 45.4° 44.3° - - -
4/25 5:40am 254 5 G 9 45° 97% - - 44° 45.4° 44.3° - - -
4/25 5:30am 242 3 G 7 45° 97% - - 44° 45.4° 44.3° - - -
4/25 5:20am 257 5 G 10 45° 97% - - 44° 45.4° 44.3° - - -
4/25 5:10am 266 5 G 7 45° 97% - - 44° 45.4° 44.3° - - -
4/25 5:00am 265 6 G 11 45° 97% - - 44° 45.4° 44.4° - - -
4/25 4:50am 227 6 G 11 45° 97% - - 44° 45.4° 44.4° - - -
4/25 4:40am 249 4 G 7 45° 97% - - 44° 45.4° 44.5° - - -
4/25 4:30am 254 3 G 7 45° 97% - - 44° 45.4° 44.5° - - -
4/25 4:20am 225 4 G 6 45° 97% - - 44° 45.4° 44.5° - - -
4/25 4:10am 221 5 G 9 45° 97% - - 44° 45.4° 44.5° - - -
4/25 4:00am 223 4 G 10 45° 97% - - 44° 45.4° 44.5° - - -
4/25 3:50am 211 4 G 7 45° 97% - - 44° 45.4° 44.5° - - -
4/25 3:40am 226 6 G 11 45° 97% - - 44° 45.4° 44.5° - - -
4/25 3:30am 210 6 G 12 45° 97% - - 44° 45.4° 44.5° - - -
4/25 3:20am 212 4 G 8 45° 97% - - 44° 45.4° 44.5° - - -
4/25 3:10am 226 4 G 7 45° 97% - - 44° 45.4° 44.5° - - -
4/25 3:00am 244 5 G 9 45° 97% - - 44° 45.4° 44.5° - - -
4/25 2:50am 233 6 G 10 45° 97% - - 44° 45.4° 44.5° - - -
4/25 2:40am 242 5 G 10 45° 97% - - 44° 45.4° 44.5° - - -
4/25 2:30am 231 5 G 8 45° 97% - - 44° 45.4° 44.5° - - -
4/25 2:20am 235 5 G 8 45° 97% - - 44° 45.4° 44.5° - - -
4/25 2:10am 235 5 G 9 45° 97% - - 44° 45.3° 44.5° - - -
4/25 2:00am 214 5 G 8 45° 97% - - 44° 45.3° 44.5° - - -
4/25 1:50am 226 4 G 8 45° 97% - - 44° 45.3° 44.5° - - -
4/25 1:40am 191 4 G 7 45° 97% - - 44° 45.1° 44.5° - - -
4/25 1:30am 231 4 G 6 45° 96% - - 44° 45.1° 44.5° - - -
4/25 1:20am 190 5 G 9 45° 96% - - 44° 45.1° 44.5° - - -
4/25 1:10am 184 4 G 9 45° 96% - - 44° 45.1° 44.5° - - -
4/25 1:00am 203 4 G 7 45° 96% - - 44° 45.1° 44.5° - - -
4/25 12:50am 215 5 G 7 45° 96% - - 44° 45.1° 44.6° - - -
4/25 12:40am 225 4 G 6 45° 96% - - 44° 45.1° 44.6° - - -
4/25 12:30am 199 3 G 7 45° 96% - - 44° 45.1° 44.6° - - -
4/25 12:20am 211 4 G 8 45° 96% - - 44° 45° 44.6° - - -
4/25 12:10am 251 4 G 8 45° 96% - - 44° 45° 44.6° - - -
4/25 12:00am 273 9 G 16 45° 96% - - 43° 60.6° 43.4° - - -
4/24 11:50pm 269 9 G 17 45° 95% - - 43° 60.6° 43.4° - - -
4/24 11:40pm 282 9 G 13 45° 94% - - 43° 60.6° 43.4° - - -
4/24 11:30pm 263 5 G 11 44° 90% - - 41° 60.6° 43.4° - - -
4/24 11:20pm 243 0 G 2 44° 86% - - 40° 60.6° 43.4° - - -
4/24 11:10pm 159 2 G 4 44° 83% - - 39° 60.6° 43.9° - - -
4/24 11:00pm 166 3 G 4 45° 77% - - 39° 60.6° 44.4° - - -
4/24 10:50pm 203 4 G 6 47° 73% - - 38° 60.6° 44.4° - - -
4/24 10:40pm 202 4 G 6 46° 76% - - 39° 60.6° 44.4° - - -
4/24 10:30pm 161 5 G 7 45° 87% - - 41° 60.6° 44.4° - - -
4/24 10:20pm 155 3 G 4 45° 91% - - 43° 60.6° 44.5° - - -
4/24 10:10pm 164 2 G 4 45° 87% - - 42° 60.6° 44.9° - - -
4/24 10:00pm 23 2 G 3 45° 92% - - 43° 60.6° 45.1° - - -
4/24 9:50pm 5 3 G 4 46° 93% - - 44° 60.6° 45.2° - - -
4/24 9:40pm 353 3 G 4 46° 92% - - 44° 60.6° 45.5° - - -
4/24 9:30pm 315 2 G 4 46° 90% - - 43° 60.6° 45.7° - - -
4/24 9:20pm 324 2 G 3 46° 90% - - 43° 60.6° 45.8° - - -
4/24 9:10pm 298 2 G 3 46° 92% - - 44° 60.6° 45.8° - - -
4/24 9:00pm 308 1 G 3 46° 91% - - 44° 60.6° 45.8° - - -
4/24 8:50pm 339 3 G 7 47° 92% - - 44° 60.6° 45.8° - - -
4/24 8:40pm 326 4 G 7 47° 93% - - 45° 60.6° 45.8° - - -
4/24 8:30pm 325 5 G 8 47° 93% - - 45° 60.6° 45.8° - - -
4/24 8:20pm 311 4 G 8 47° 91% - - 45° 60.6° 45.8° - - -
4/24 8:10pm 303 6 G 10 48° 90% - - 45° 60.6° 45.8° - - -
4/24 8:00pm 304 6 G 9 48° 91% - - 45° 60.6° 45.8° - - -
4/24 7:50pm 298 6 G 8 48° 90% - - 46° 60.6° 45.8° - - -
4/24 7:40pm 302 6 G 8 49° 90% - - 46° 60.6° 45.8° - - -
4/24 7:30pm 298 7 G 10 49° 89% - - 46° 60.6° 45.8° - - -
4/24 7:20pm 300 8 G 11 50° 85% - - 46° 60.6° 45.8° - - -
4/24 7:10pm 299 8 G 11 51° 81% - - 45° 60.6° 45.8° - - -
4/24 7:00pm 301 8 G 12 51° 79% - - 45° 60.6° 45.8° - - -
4/24 6:50pm 299 10 G 14 52° 76% - - 45° 60.6° 45.8° - - -
4/24 6:40pm 290 9 G 15 53° 74% - - 45° 60.6° 45.8° - - -
4/24 6:30pm 296 11 G 16 53° 71% - - 43° 60.6° 45.8° - - -
4/24 6:20pm 300 11 G 16 54° 68% - - 43° 60.6° 45.8° - - -
4/24 6:10pm 299 11 G 16 54° 64% - - 42° 60.6° 45.8° - - -
4/24 6:00pm 299 11 G 16 55° 59% - - 41° 60.6° 45.8° - - -